createdAt,value
2018-09-15T00:00:21.539Z,4.20
2018-09-15T00:02:51.022Z,4.00
2018-09-15T00:05:19.726Z,3.93
2018-09-15T00:07:48.687Z,3.63
2018-09-15T00:10:16.920Z,4.37
2018-09-15T00:12:44.952Z,3.97
2018-09-15T00:15:13.034Z,4.20
2018-09-15T00:17:43.072Z,3.90
2018-09-15T00:20:11.279Z,3.80
2018-09-15T00:22:39.437Z,3.60
2018-09-15T00:25:07.658Z,3.73
2018-09-15T00:27:35.792Z,3.30
2018-09-15T00:30:03.972Z,3.60
2018-09-15T00:32:32.179Z,3.50
2018-09-15T00:35:00.395Z,3.53
2018-09-15T00:37:28.618Z,3.83
2018-09-15T00:39:56.847Z,3.20
2018-09-15T00:42:24.932Z,3.43
2018-09-15T00:44:53.014Z,3.30
2018-09-15T00:47:21.120Z,3.67
2018-09-15T00:49:49.339Z,3.80
2018-09-15T00:52:17.436Z,3.33
2018-09-15T00:54:46.044Z,3.20
2018-09-15T00:57:14.164Z,3.23
2018-09-15T00:59:42.392Z,3.50
2018-09-15T01:02:10.487Z,3.23
2018-09-15T01:04:38.524Z,3.60
2018-09-15T01:07:06.672Z,3.53
2018-09-15T01:09:34.964Z,2.87
2018-09-15T01:12:03.178Z,3.53
2018-09-15T01:14:33.374Z,3.23
2018-09-15T01:17:01.745Z,3.10
2018-09-15T01:19:29.859Z,3.23
2018-09-15T01:21:58.205Z,3.40
2018-09-15T01:24:26.277Z,3.07
2018-09-15T01:26:54.611Z,3.90
2018-09-15T01:29:22.731Z,3.80
2018-09-15T01:31:51.024Z,3.73
2018-09-15T01:34:19.284Z,4.07
2018-09-15T01:36:47.499Z,3.50
2018-09-15T01:39:15.849Z,4.10
2018-09-15T01:41:44.758Z,3.63
2018-09-15T01:44:13.571Z,3.00
2018-09-15T01:46:42.298Z,3.77
2018-09-15T01:49:10.538Z,3.87
2018-09-15T01:51:38.977Z,4.47
2018-09-15T01:54:07.066Z,4.30
2018-09-15T01:56:35.281Z,3.80
2018-09-15T01:59:03.446Z,3.57
2018-09-15T02:01:31.513Z,4.13
2018-09-15T02:03:59.616Z,3.87
2018-09-15T02:06:27.677Z,3.67
2018-09-15T02:08:55.749Z,3.93
2018-09-15T02:11:23.772Z,3.70
2018-09-15T02:13:51.851Z,3.40
2018-09-15T02:16:19.940Z,3.83
2018-09-15T02:18:48.151Z,4.17
2018-09-15T02:21:16.239Z,3.70
2018-09-15T02:23:44.322Z,4.00
2018-09-15T02:26:12.360Z,4.03
2018-09-15T02:28:40.545Z,4.50
2018-09-15T02:31:08.620Z,3.30
2018-09-15T02:33:36.738Z,3.33
2018-09-15T02:36:04.832Z,3.20
2018-09-15T02:38:32.876Z,3.47
2018-09-15T02:41:00.938Z,4.23
2018-09-15T02:43:29.045Z,3.70
2018-09-15T02:45:57.151Z,4.30
2018-09-15T02:48:25.225Z,3.57
2018-09-15T02:50:53.351Z,3.70
2018-09-15T02:53:21.360Z,4.13
2018-09-15T02:55:49.485Z,4.03
2018-09-15T02:58:17.528Z,4.10
2018-09-15T03:00:45.680Z,4.50
2018-09-15T03:03:13.820Z,3.97
2018-09-15T03:05:41.922Z,4.70
2018-09-15T03:08:09.990Z,4.33
2018-09-15T03:10:38.054Z,4.43
2018-09-15T03:13:06.113Z,4.90
2018-09-15T03:15:34.195Z,4.37
2018-09-15T03:18:02.349Z,4.50
2018-09-15T03:20:30.462Z,4.30
2018-09-15T03:22:58.893Z,4.37
2018-09-15T03:25:27.093Z,4.17
2018-09-15T03:27:55.180Z,3.90
2018-09-15T03:30:23.258Z,4.13
2018-09-15T03:32:51.407Z,4.63
2018-09-15T03:35:19.555Z,4.30
2018-09-15T03:37:47.625Z,4.70
2018-09-15T03:40:15.633Z,5.30
2018-09-15T03:42:43.789Z,4.30
2018-09-15T03:45:11.866Z,4.10
2018-09-15T03:47:40.291Z,4.70
2018-09-15T03:50:08.438Z,3.90
2018-09-15T03:52:36.658Z,4.20
2018-09-15T03:55:04.855Z,4.10
2018-09-15T03:57:32.911Z,4.90
2018-09-15T04:00:01.089Z,4.33
2018-09-15T04:02:29.089Z,4.50
2018-09-15T04:04:57.164Z,4.70
2018-09-15T04:07:25.403Z,4.47
2018-09-15T04:09:53.451Z,4.10
2018-09-15T04:12:21.521Z,4.37
2018-09-15T04:14:49.712Z,4.20
2018-09-15T04:17:17.736Z,4.43
2018-09-15T04:19:45.812Z,4.60
2018-09-15T04:22:13.968Z,4.27
2018-09-15T04:24:42.082Z,4.90
2018-09-15T04:27:11.058Z,5.17
2018-09-15T04:29:39.102Z,4.67
2018-09-15T04:32:07.267Z,5.20
2018-09-15T04:34:35.311Z,4.33
2018-09-15T04:37:03.379Z,5.20
2018-09-15T04:39:31.484Z,4.60
2018-09-15T04:41:59.580Z,4.67
2018-09-15T04:44:27.764Z,5.07
2018-09-15T04:46:55.902Z,4.53
2018-09-15T04:49:23.940Z,5.27
2018-09-15T04:51:52.242Z,5.07
2018-09-15T04:54:20.316Z,5.20
2018-09-15T04:56:48.504Z,4.90
2018-09-15T04:59:16.576Z,5.00
2018-09-15T05:01:44.660Z,5.50
2018-09-15T05:04:12.703Z,6.00
2018-09-15T05:06:40.895Z,5.90
2018-09-15T05:09:10.706Z,5.40
2018-09-15T05:11:38.792Z,5.13
2018-09-15T05:14:07.074Z,4.80
2018-09-15T05:16:35.204Z,5.37
2018-09-15T05:19:03.404Z,5.70
2018-09-15T05:21:31.454Z,6.73
2018-09-15T05:23:59.605Z,5.50
2018-09-15T05:26:27.696Z,6.00
2018-09-15T05:28:56.143Z,5.50
2018-09-15T05:31:24.389Z,6.30
2018-09-15T05:33:52.423Z,6.20
2018-09-15T05:36:20.771Z,6.00
2018-09-15T05:38:48.969Z,5.73
2018-09-15T05:41:17.018Z,6.10
2018-09-15T05:43:45.099Z,5.17
2018-09-15T05:46:13.110Z,6.23
2018-09-15T05:48:41.235Z,5.37
2018-09-15T05:51:09.461Z,6.00
2018-09-15T05:53:37.554Z,6.47
2018-09-15T05:56:05.724Z,6.20
2018-09-15T05:58:33.764Z,5.00
2018-09-15T06:01:02.553Z,5.63
2018-09-15T06:03:30.654Z,5.43
2018-09-15T06:05:58.735Z,6.43
2018-09-15T06:08:26.853Z,5.83
2018-09-15T06:10:54.986Z,5.97
2018-09-15T06:13:23.207Z,5.80
2018-09-15T06:15:51.352Z,6.70
2018-09-15T06:18:19.484Z,5.60
2018-09-15T06:20:47.632Z,6.60
2018-09-15T06:23:15.786Z,6.20
2018-09-15T06:25:43.923Z,6.40
2018-09-15T06:28:11.977Z,6.50
2018-09-15T06:30:40.067Z,6.53
2018-09-15T06:33:08.295Z,6.60
2018-09-15T06:35:36.443Z,6.30
2018-09-15T06:38:04.658Z,6.10
2018-09-15T06:40:32.748Z,6.60
2018-09-15T06:43:00.883Z,6.27
2018-09-15T06:48:07.511Z,7.80
2018-09-15T06:50:36.020Z,7.20
2018-09-15T06:53:04.092Z,6.60
2018-09-15T06:55:32.568Z,8.30
2018-09-15T06:58:01.079Z,8.70
2018-09-15T07:00:29.398Z,8.03
2018-09-15T07:02:58.124Z,9.97
2018-09-15T07:05:26.378Z,12.10
2018-09-15T07:07:54.578Z,11.10
2018-09-15T07:10:22.795Z,10.57
2018-09-15T07:12:50.933Z,10.70
2018-09-15T07:15:19.141Z,10.17
2018-09-15T07:17:48.192Z,10.30
2018-09-15T07:20:16.519Z,11.00
2018-09-15T07:22:44.644Z,12.00
2018-09-15T07:25:12.927Z,12.10
2018-09-15T07:27:41.234Z,14.00
2018-09-15T07:30:09.639Z,10.93
2018-09-15T07:32:37.829Z,10.73
2018-09-15T07:35:06.096Z,11.13
2018-09-15T07:37:34.304Z,10.40
2018-09-15T07:40:02.444Z,11.33
2018-09-15T07:42:30.550Z,10.40
2018-09-15T07:44:58.684Z,10.37
2018-09-15T07:47:26.817Z,9.77
2018-09-15T07:49:54.910Z,9.40
2018-09-15T07:52:23.456Z,8.80
2018-09-15T07:54:51.554Z,9.07
2018-09-15T07:57:19.722Z,7.90
2018-09-15T07:59:47.855Z,8.43
2018-09-15T08:02:21.567Z,7.47
2018-09-15T08:04:50.637Z,8.70
2018-09-15T08:07:18.813Z,9.50
2018-09-15T08:09:47.259Z,8.67
2018-09-15T08:12:16.578Z,8.87
2018-09-15T08:14:44.749Z,7.97
2018-09-15T08:17:13.150Z,8.07
2018-09-15T08:19:41.367Z,7.40
2018-09-15T08:22:09.974Z,8.33
2018-09-15T08:24:38.704Z,7.70
2018-09-15T08:27:07.706Z,7.77
2018-09-15T08:29:36.906Z,7.73
2018-09-15T08:32:06.382Z,7.10
2018-09-15T08:34:35.125Z,6.43
2018-09-15T08:37:03.681Z,7.50
2018-09-15T08:39:32.002Z,7.17
2018-09-15T08:42:00.598Z,7.07
2018-09-15T08:44:29.553Z,6.17
2018-09-15T08:46:57.754Z,7.43
2018-09-15T08:49:27.205Z,6.50
2018-09-15T08:51:55.908Z,7.23
2018-09-15T08:54:24.384Z,6.10
2018-09-15T08:56:52.864Z,7.17
2018-09-15T08:59:21.272Z,6.80
2018-09-15T09:01:49.682Z,6.43
2018-09-15T09:06:58.835Z,6.43
2018-09-15T09:09:27.056Z,6.00
2018-09-15T09:11:55.214Z,6.47
2018-09-15T09:14:23.476Z,4.10
2018-09-15T09:16:51.797Z,4.60
2018-09-15T09:19:19.952Z,3.70
2018-09-15T09:21:48.696Z,3.73
2018-09-15T09:24:16.887Z,4.00
2018-09-15T09:26:45.439Z,3.20
2018-09-15T09:29:13.611Z,1.80
2018-09-15T09:31:42.257Z,1.70
2018-09-15T09:34:10.527Z,1.67
2018-09-15T09:36:38.790Z,2.00
2018-09-15T09:39:11.843Z,1.57
2018-09-15T09:41:40.226Z,4.20
2018-09-15T09:44:08.727Z,2.23
2018-09-15T09:46:37.011Z,1.63
2018-09-15T09:49:05.626Z,1.90
2018-09-15T09:51:33.813Z,1.20
2018-09-15T09:54:02.139Z,1.20
2018-09-15T09:56:30.290Z,1.50
2018-09-15T09:58:58.495Z,1.33
2018-09-15T10:01:33.156Z,2.00
2018-09-15T10:04:01.388Z,1.47
2018-09-15T10:06:29.596Z,1.40
2018-09-15T10:08:57.834Z,1.60
2018-09-15T10:11:26.005Z,1.40
2018-09-15T10:13:57.151Z,1.50
2018-09-15T10:16:25.519Z,1.70
2018-09-15T10:18:53.678Z,1.30
2018-09-15T10:21:21.923Z,1.30
2018-09-15T10:23:50.804Z,1.83
2018-09-15T10:26:19.034Z,1.17
2018-09-15T10:28:47.143Z,1.63
2018-09-15T10:31:15.398Z,1.60
2018-09-15T10:33:43.589Z,1.27
2018-09-15T10:36:11.848Z,1.40
2018-09-15T10:38:40.112Z,1.13
2018-09-15T10:41:08.208Z,1.80
2018-09-15T10:43:36.636Z,2.20
2018-09-15T10:46:04.808Z,1.60
2018-09-15T10:48:32.923Z,1.57
2018-09-15T10:51:01.141Z,1.20
2018-09-15T10:53:29.211Z,1.30
2018-09-15T10:55:57.368Z,1.63
2018-09-15T10:58:25.480Z,1.30
2018-09-15T11:00:53.748Z,1.87
2018-09-15T11:03:22.421Z,1.90
2018-09-15T11:05:51.039Z,1.23
2018-09-15T11:08:19.165Z,1.50
2018-09-15T11:10:47.330Z,1.30
2018-09-15T11:13:15.665Z,1.30
2018-09-15T11:15:43.803Z,1.87
2018-09-15T11:18:12.549Z,1.30
2018-09-15T11:20:40.640Z,1.33
2018-09-15T11:23:08.688Z,1.67
2018-09-15T11:25:37.191Z,1.37
2018-09-15T11:28:05.308Z,1.37
2018-09-15T11:30:34.241Z,1.10
2018-09-15T11:33:02.455Z,1.20
2018-09-15T11:35:31.467Z,1.20
2018-09-15T11:38:00.082Z,1.07
2018-09-15T11:40:28.158Z,1.20
2018-09-15T11:42:56.292Z,1.07
2018-09-15T11:45:24.613Z,1.20
2018-09-15T11:47:52.811Z,0.90
2018-09-15T11:50:21.016Z,1.20
2018-09-15T11:52:49.300Z,1.40
2018-09-15T11:55:18.270Z,1.40
2018-09-15T11:57:46.373Z,1.07
2018-09-15T12:00:17.821Z,1.10
2018-09-15T12:02:46.200Z,1.33
2018-09-15T12:05:14.464Z,1.10
2018-09-15T12:07:42.747Z,0.97
2018-09-15T12:10:10.964Z,1.43
2018-09-15T12:12:39.561Z,0.93
2018-09-15T12:15:07.826Z,0.90
2018-09-15T12:17:36.125Z,0.90
2018-09-15T12:20:04.621Z,1.10
2018-09-15T12:22:32.990Z,0.80
2018-09-15T12:25:01.557Z,1.00
2018-09-15T12:27:29.769Z,0.70
2018-09-15T12:29:58.634Z,0.90
2018-09-15T12:32:26.830Z,0.97
2018-09-15T12:34:55.021Z,0.90
2018-09-15T12:37:23.239Z,0.90
2018-09-15T12:39:51.412Z,0.90
2018-09-15T12:42:19.796Z,1.20
2018-09-15T12:44:48.065Z,0.83
2018-09-15T12:47:16.425Z,0.80
2018-09-15T12:49:44.581Z,1.23
2018-09-15T12:52:12.965Z,0.90
2018-09-15T12:54:41.090Z,1.87
2018-09-15T12:57:09.193Z,1.20
2018-09-15T12:59:37.412Z,0.80
2018-09-15T13:02:05.742Z,1.07
2018-09-15T13:04:33.994Z,1.00
2018-09-15T13:07:02.276Z,0.90
2018-09-15T13:09:30.436Z,1.17
2018-09-15T13:11:58.669Z,0.80
2018-09-15T13:14:26.897Z,1.00
2018-09-15T13:16:55.066Z,0.93
2018-09-15T13:19:23.884Z,1.77
2018-09-15T13:21:52.173Z,1.00
2018-09-15T13:24:20.439Z,1.20
2018-09-15T13:26:49.330Z,1.00
2018-09-15T13:29:18.453Z,1.23
2018-09-15T13:31:46.625Z,1.10
2018-09-15T13:34:14.753Z,1.20
2018-09-15T13:36:42.996Z,1.00
2018-09-15T13:39:11.927Z,1.00
2018-09-15T13:41:40.181Z,1.10
2018-09-15T13:44:08.578Z,1.07
2018-09-15T13:46:36.928Z,1.20
2018-09-15T13:49:05.484Z,0.93
2018-09-15T13:51:33.616Z,0.90
2018-09-15T13:54:01.798Z,1.00
2018-09-15T13:56:29.962Z,0.83
2018-09-15T13:58:58.335Z,0.90
2018-09-15T14:01:26.432Z,0.97
2018-09-15T14:03:54.684Z,1.30
2018-09-15T14:06:22.911Z,1.67
2018-09-15T14:08:51.145Z,1.23
2018-09-15T14:11:19.507Z,1.07
2018-09-15T14:13:47.742Z,0.90
2018-09-15T14:16:16.120Z,1.03
2018-09-15T14:18:44.397Z,0.90
2018-09-15T14:21:12.968Z,0.90
2018-09-15T14:23:41.165Z,1.00
2018-09-15T14:26:09.470Z,1.00
2018-09-15T14:28:37.802Z,1.87
2018-09-15T14:31:06.141Z,1.87
2018-09-15T14:33:41.188Z,1.40
2018-09-15T14:36:09.565Z,1.00
2018-09-15T14:38:38.483Z,1.10
2018-09-15T14:41:07.782Z,1.20
2018-09-15T14:43:36.016Z,1.00
2018-09-15T14:46:04.417Z,0.90
2018-09-15T14:48:32.677Z,0.90
2018-09-15T14:51:00.902Z,1.20
2018-09-15T14:53:29.136Z,1.10
2018-09-15T14:55:57.400Z,1.00
2018-09-15T14:58:25.517Z,0.90
2018-09-15T15:00:53.716Z,1.20
2018-09-15T15:03:22.283Z,1.53
2018-09-15T15:05:50.375Z,1.40
2018-09-15T15:08:18.524Z,2.10
2018-09-15T15:10:46.665Z,1.50
2018-09-15T15:13:14.808Z,1.00
2018-09-15T15:15:42.957Z,0.90
2018-09-15T15:18:11.088Z,0.90
2018-09-15T15:20:39.295Z,1.20
2018-09-15T15:23:07.492Z,1.00
2018-09-15T15:25:35.885Z,1.10
2018-09-15T15:28:04.205Z,1.90
2018-09-15T15:30:32.555Z,1.80
2018-09-15T15:33:00.718Z,1.50
2018-09-15T15:35:28.939Z,1.10
2018-09-15T15:37:57.088Z,1.00
2018-09-15T15:40:25.227Z,1.10
2018-09-15T15:42:54.094Z,1.20
2018-09-15T15:45:23.145Z,1.00
2018-09-15T15:47:51.445Z,1.70
2018-09-15T15:50:19.901Z,1.83
2018-09-15T15:52:47.990Z,2.57
2018-09-15T15:55:16.154Z,2.00
2018-09-15T15:57:44.441Z,1.77
2018-09-15T16:00:12.754Z,1.80
2018-09-15T16:02:40.904Z,0.97
2018-09-15T16:05:09.146Z,1.30
2018-09-15T16:07:37.317Z,1.37
2018-09-15T16:10:05.805Z,1.47
2018-09-15T16:12:34.813Z,1.00
2018-09-15T16:15:03.710Z,1.50
2018-09-15T16:17:31.910Z,6.20
2018-09-15T16:20:00.095Z,1.60
2018-09-15T16:22:28.195Z,1.30
2018-09-15T16:24:56.468Z,1.30
2018-09-15T16:27:25.234Z,1.70
2018-09-15T16:29:53.568Z,5.30
2018-09-15T16:32:21.808Z,10.17
2018-09-15T16:34:50.042Z,7.70
2018-09-15T16:37:18.305Z,4.83
2018-09-15T16:39:46.486Z,4.27
2018-09-15T16:42:14.682Z,3.40
2018-09-15T16:44:42.922Z,2.20
2018-09-15T16:47:11.101Z,1.87
2018-09-15T16:49:39.480Z,2.30
2018-09-15T16:52:08.462Z,2.83
2018-09-15T16:54:36.762Z,2.27
2018-09-15T16:57:11.662Z,5.37
2018-09-15T16:59:39.992Z,1.90
2018-09-15T17:02:08.662Z,2.20
2018-09-15T17:04:37.073Z,2.00
2018-09-15T17:07:05.572Z,1.80
2018-09-15T17:09:33.804Z,3.17
2018-09-15T17:12:02.012Z,31.77
2018-09-15T17:14:30.300Z,4.57
2018-09-15T17:16:58.439Z,22.13
2018-09-15T17:19:27.200Z,2.30
2018-09-15T17:21:55.405Z,2.10
2018-09-15T17:24:23.752Z,2.40
2018-09-15T17:26:52.066Z,2.47
2018-09-15T17:29:20.240Z,1.90
2018-09-15T17:31:48.310Z,2.63
2018-09-15T17:34:16.552Z,2.97
2018-09-15T17:36:44.733Z,2.20
2018-09-15T17:39:12.918Z,2.43
2018-09-15T17:41:41.212Z,2.47
2018-09-15T17:44:09.565Z,3.50
2018-09-15T17:46:38.006Z,2.67
2018-09-15T17:49:06.276Z,3.70
2018-09-15T17:51:34.537Z,2.70
2018-09-15T17:54:02.793Z,3.07
2018-09-15T17:56:30.889Z,2.13
2018-09-15T17:58:59.173Z,2.40
2018-09-15T18:01:28.522Z,3.40
2018-09-15T18:03:57.225Z,2.70
2018-09-15T18:06:26.038Z,3.23
2018-09-15T18:08:54.408Z,3.57
2018-09-15T18:11:22.876Z,2.63
2018-09-15T18:13:51.193Z,2.23
2018-09-15T18:16:19.419Z,2.53
2018-09-15T18:18:47.676Z,2.20
2018-09-15T18:21:16.039Z,2.30
2018-09-15T18:23:44.406Z,2.20
2018-09-15T18:26:12.954Z,2.53
2018-09-15T18:28:41.579Z,2.20
2018-09-15T18:31:10.782Z,2.57
2018-09-15T18:33:39.448Z,2.40
2018-09-15T18:36:08.521Z,2.97
2018-09-15T18:38:36.711Z,3.10
2018-09-15T18:41:06.108Z,3.67
2018-09-15T18:43:35.542Z,4.70
2018-09-15T18:46:03.898Z,3.40
2018-09-15T18:48:32.322Z,3.33
2018-09-15T18:51:00.618Z,3.23
2018-09-15T18:53:28.960Z,3.50
2018-09-15T18:55:57.282Z,3.23
2018-09-15T18:58:25.829Z,3.20
2018-09-15T19:00:54.714Z,3.67
2018-09-15T19:03:23.567Z,3.37
2018-09-15T19:05:51.985Z,3.70
2018-09-15T19:08:20.890Z,3.17
2018-09-15T19:10:49.334Z,3.20
2018-09-15T19:13:17.774Z,3.00
2018-09-15T19:15:46.370Z,3.30
2018-09-15T19:18:15.268Z,3.27
2018-09-15T19:20:43.579Z,3.33
2018-09-15T19:23:12.574Z,3.10
2018-09-15T19:25:40.836Z,3.10
2018-09-15T19:28:10.439Z,2.77
2018-09-15T19:30:39.005Z,3.07
2018-09-15T19:33:07.408Z,3.03
2018-09-15T19:35:35.795Z,2.90
2018-09-15T19:38:05.358Z,2.90
2018-09-15T19:40:34.416Z,3.33
2018-09-15T19:43:02.649Z,4.07
2018-09-15T19:45:32.014Z,3.27
2018-09-15T19:48:01.055Z,3.90
2018-09-15T19:50:29.565Z,3.40
2018-09-15T19:52:58.959Z,3.77
2018-09-15T19:55:27.201Z,3.47
2018-09-15T19:57:55.400Z,3.60
2018-09-15T20:00:23.740Z,3.27
2018-09-15T20:02:52.053Z,3.13
2018-09-15T20:05:20.524Z,3.50
2018-09-15T20:07:48.744Z,3.63
2018-09-15T20:10:17.138Z,4.03
2018-09-15T20:12:45.555Z,4.20
2018-09-15T20:15:22.748Z,4.20
2018-09-15T20:17:50.304Z,3.70
2018-09-15T20:20:16.895Z,3.30
2018-09-15T20:22:45.415Z,3.40
2018-09-15T20:25:13.688Z,3.50
2018-09-15T20:27:42.438Z,3.70
2018-09-15T20:30:11.256Z,4.93
2018-09-15T20:32:39.585Z,4.50
2018-09-15T20:35:08.231Z,4.30
2018-09-15T20:37:37.595Z,4.63
2018-09-15T20:40:06.681Z,4.67
2018-09-15T20:42:34.909Z,5.03
2018-09-15T20:45:04.437Z,4.90
2018-09-15T20:47:32.784Z,4.77
2018-09-15T20:50:02.051Z,6.33
2018-09-15T20:52:30.366Z,7.00
2018-09-15T20:54:58.841Z,6.20
2018-09-15T20:57:27.214Z,6.27
2018-09-15T20:59:55.391Z,5.77
2018-09-15T21:02:23.964Z,6.17
2018-09-15T21:04:52.543Z,6.30
2018-09-15T21:07:21.032Z,6.00
2018-09-15T21:09:49.740Z,6.53
2018-09-15T21:12:18.563Z,5.77
2018-09-15T21:14:47.151Z,6.47
2018-09-15T21:17:15.541Z,7.27
2018-09-15T21:19:43.777Z,6.80
2018-09-15T21:22:11.953Z,7.10
2018-09-15T21:24:40.080Z,8.07
2018-09-15T21:27:08.413Z,9.80
2018-09-15T21:29:36.795Z,9.33
2018-09-15T21:32:05.087Z,7.57
2018-09-15T21:34:33.273Z,7.77
2018-09-15T21:37:01.490Z,8.07
2018-09-15T21:39:29.662Z,8.37
2018-09-15T21:41:57.816Z,8.10
2018-09-15T21:44:25.990Z,7.67
2018-09-15T21:46:54.140Z,8.30
2018-09-15T21:49:22.331Z,8.50
2018-09-15T21:51:50.457Z,8.30
2018-09-15T21:54:18.611Z,8.60
2018-09-15T21:56:46.767Z,9.00
2018-09-15T21:59:14.875Z,7.27
2018-09-15T22:01:43.055Z,7.90
2018-09-15T22:04:16.856Z,7.77
2018-09-15T22:06:44.979Z,7.40
2018-09-15T22:09:13.466Z,8.50
2018-09-15T22:11:42.163Z,8.03
2018-09-15T22:14:11.179Z,7.17
2018-09-15T22:16:39.624Z,7.60
2018-09-15T22:19:08.486Z,8.10
2018-09-15T22:21:36.731Z,6.70
2018-09-15T22:24:05.041Z,8.03
2018-09-15T22:26:33.543Z,7.23
2018-09-15T22:29:01.904Z,6.63
2018-09-15T22:31:30.115Z,7.30
2018-09-15T22:33:59.193Z,6.77
2018-09-15T22:36:27.480Z,5.67
2018-09-15T22:38:55.698Z,5.93
2018-09-15T22:41:23.871Z,6.27
2018-09-15T22:43:52.011Z,6.17
2018-09-15T22:46:20.595Z,5.47
2018-09-15T22:48:48.680Z,5.70
2018-09-15T22:51:16.771Z,5.30
2018-09-15T22:53:45.142Z,5.90
2018-09-15T22:56:13.252Z,6.47
2018-09-15T22:58:41.352Z,5.77
2018-09-15T23:01:09.464Z,5.70
2018-09-15T23:03:37.617Z,5.80
2018-09-15T23:06:05.735Z,5.70
2018-09-15T23:08:33.847Z,5.80
2018-09-15T23:11:01.958Z,7.10
2018-09-15T23:13:30.249Z,9.03
2018-09-15T23:15:58.428Z,6.00
2018-09-15T23:18:26.559Z,6.37
2018-09-15T23:20:54.687Z,5.50
2018-09-15T23:23:23.400Z,5.67
2018-09-15T23:25:51.468Z,5.47
2018-09-15T23:28:19.561Z,5.00
2018-09-15T23:30:47.705Z,5.50
2018-09-15T23:33:15.798Z,5.40
2018-09-15T23:35:44.025Z,5.73
2018-09-15T23:38:12.077Z,4.80
2018-09-15T23:40:40.135Z,4.80
2018-09-15T23:43:08.336Z,5.40
2018-09-15T23:45:36.440Z,7.23
2018-09-15T23:48:04.587Z,4.73
2018-09-15T23:50:32.790Z,6.23
2018-09-15T23:53:00.847Z,5.40
2018-09-15T23:55:28.868Z,5.80
2018-09-15T23:57:56.931Z,5.70
